createdAt,value
2019-05-19T00:00:05.559Z,15.30
2019-05-19T00:02:33.777Z,15.20
2019-05-19T00:05:01.115Z,15.20
2019-05-19T00:07:28.761Z,15.20
2019-05-19T00:09:56.270Z,15.10
2019-05-19T00:12:43.234Z,15.10
2019-05-19T00:15:10.591Z,15.10
2019-05-19T00:17:38.181Z,15.00
2019-05-19T00:20:05.972Z,15.00
2019-05-19T00:22:33.712Z,14.90
2019-05-19T00:25:01.280Z,14.90
2019-05-19T00:27:28.786Z,14.90
2019-05-19T00:29:56.298Z,14.80
2019-05-19T00:32:23.883Z,14.80
2019-05-19T00:34:51.407Z,14.70
2019-05-19T00:37:18.955Z,14.70
2019-05-19T00:39:46.633Z,14.70
2019-05-19T00:42:14.194Z,14.60
2019-05-19T00:44:41.762Z,14.60
2019-05-19T00:47:09.444Z,14.50
2019-05-19T00:49:41.387Z,14.50
2019-05-19T00:52:07.012Z,14.50
2019-05-19T00:54:34.496Z,14.40
2019-05-19T00:57:02.948Z,14.40
2019-05-19T00:59:30.811Z,14.40
2019-05-19T01:01:58.316Z,14.30
2019-05-19T01:04:26.031Z,14.30
2019-05-19T01:06:53.500Z,14.20
2019-05-19T01:09:22.999Z,14.20
2019-05-19T01:11:50.570Z,14.20
2019-05-19T01:14:18.041Z,14.10
2019-05-19T01:16:45.499Z,14.10
2019-05-19T01:19:12.839Z,14.00
2019-05-19T01:21:41.297Z,14.00
2019-05-19T01:24:08.734Z,14.00
2019-05-19T01:26:36.237Z,14.00
2019-05-19T01:29:03.637Z,13.90
2019-05-19T01:31:31.049Z,13.90
2019-05-19T01:33:59.445Z,13.80
2019-05-19T01:36:26.915Z,13.80
2019-05-19T01:41:50.906Z,13.70
2019-05-19T01:44:18.475Z,13.70
2019-05-19T01:46:46.364Z,13.70
2019-05-19T01:49:13.841Z,13.60
2019-05-19T01:51:41.294Z,13.60
2019-05-19T01:54:08.722Z,13.60
2019-05-19T01:56:36.134Z,13.60
2019-05-19T01:59:03.667Z,13.60
2019-05-19T02:01:31.302Z,13.50
2019-05-19T02:03:58.926Z,13.50
2019-05-19T02:06:26.607Z,13.50
2019-05-19T02:08:54.099Z,13.50
2019-05-19T02:11:22.521Z,13.50
2019-05-19T02:13:50.107Z,13.50
2019-05-19T02:16:17.730Z,13.40
2019-05-19T02:18:45.390Z,13.40
2019-05-19T02:21:12.790Z,13.40
2019-05-19T02:23:40.298Z,13.30
2019-05-19T02:26:07.736Z,13.30
2019-05-19T02:28:35.656Z,13.30
2019-05-19T02:31:03.119Z,13.30
2019-05-19T02:33:33.182Z,13.30
2019-05-19T02:36:00.050Z,13.20
2019-05-19T02:38:27.593Z,13.20
2019-05-19T02:40:57.404Z,13.20
2019-05-19T02:43:25.765Z,13.20
2019-05-19T02:45:58.267Z,13.10
2019-05-19T02:48:28.485Z,13.10
2019-05-19T02:50:59.084Z,13.10
2019-05-19T02:53:26.797Z,13.00
2019-05-19T02:55:54.924Z,13.00
2019-05-19T02:58:23.768Z,13.00
2019-05-19T03:00:51.473Z,13.00
2019-05-19T03:03:19.032Z,12.90
2019-05-19T03:05:46.523Z,12.90
2019-05-19T03:08:14.014Z,12.90
2019-05-19T03:10:41.707Z,12.90
2019-05-19T03:13:09.389Z,12.90
2019-05-19T03:15:38.145Z,12.90
2019-05-19T03:18:05.650Z,12.90
2019-05-19T03:20:33.215Z,12.80
2019-05-19T03:23:00.850Z,12.80
2019-05-19T03:25:28.321Z,12.80
2019-05-19T03:27:55.934Z,12.70
2019-05-19T03:30:37.935Z,12.70
2019-05-19T03:33:06.017Z,12.70
2019-05-19T03:35:33.537Z,12.70
2019-05-19T03:38:01.055Z,12.70
2019-05-19T03:40:28.412Z,12.70
2019-05-19T03:42:55.910Z,12.60
2019-05-19T03:45:23.653Z,12.60
2019-05-19T03:47:51.169Z,12.60
2019-05-19T03:50:19.717Z,12.60
2019-05-19T03:52:47.357Z,12.60
2019-05-19T03:55:15.119Z,12.70
2019-05-19T03:57:42.536Z,12.70
2019-05-19T04:00:10.457Z,12.70
2019-05-19T04:02:37.901Z,12.80
2019-05-19T04:05:06.026Z,12.80
2019-05-19T04:07:33.631Z,12.80
2019-05-19T04:10:01.223Z,12.90
2019-05-19T04:12:28.659Z,12.90
2019-05-19T04:14:56.414Z,12.90
2019-05-19T04:17:23.939Z,13.00
2019-05-19T04:19:51.415Z,13.00
2019-05-19T04:22:18.991Z,13.10
2019-05-19T04:24:46.696Z,13.10
2019-05-19T04:27:14.315Z,13.20
2019-05-19T04:29:41.888Z,13.20
2019-05-19T04:32:09.441Z,13.20
2019-05-19T04:34:37.050Z,13.30
2019-05-19T04:37:04.708Z,13.40
2019-05-19T04:39:32.077Z,13.40
2019-05-19T04:41:59.582Z,13.40
2019-05-19T04:44:27.121Z,13.50
2019-05-19T04:46:54.702Z,13.50
2019-05-19T04:49:23.049Z,13.60
2019-05-19T04:52:05.431Z,13.60
2019-05-19T04:54:20.691Z,13.70
2019-05-19T04:56:48.283Z,13.70
2019-05-19T04:59:15.827Z,13.70
2019-05-19T05:01:43.316Z,13.70
2019-05-19T05:04:11.002Z,13.80
2019-05-19T05:06:38.494Z,13.80
2019-05-19T05:09:06.154Z,13.80
2019-05-19T05:11:33.658Z,13.90
2019-05-19T05:14:01.284Z,13.90
2019-05-19T05:16:28.771Z,14.00
2019-05-19T05:18:56.411Z,14.00
2019-05-19T05:21:24.049Z,14.10
2019-05-19T05:24:11.142Z,14.10
2019-05-19T05:26:38.702Z,14.20
2019-05-19T05:29:06.110Z,14.30
2019-05-19T05:31:33.841Z,14.40
2019-05-19T05:34:01.348Z,14.50
2019-05-19T05:36:28.920Z,14.60
2019-05-19T05:38:56.535Z,14.70
2019-05-19T05:41:24.132Z,14.70
2019-05-19T05:43:51.663Z,14.80
2019-05-19T05:46:19.056Z,14.90
2019-05-19T05:48:46.633Z,15.00
2019-05-19T05:51:14.057Z,15.10
2019-05-19T05:53:41.657Z,15.10
2019-05-19T05:56:09.369Z,15.20
2019-05-19T05:58:36.911Z,15.30
2019-05-19T06:01:04.570Z,15.40
2019-05-19T06:03:32.214Z,15.60
2019-05-19T06:05:59.566Z,15.70
2019-05-19T06:08:27.114Z,15.90
2019-05-19T06:10:54.787Z,16.00
2019-05-19T06:13:22.794Z,16.30
2019-05-19T06:15:50.376Z,16.50
2019-05-19T06:18:19.095Z,16.70
2019-05-19T06:20:46.733Z,16.90
2019-05-19T06:23:14.142Z,17.10
2019-05-19T06:25:41.576Z,17.40
2019-05-19T06:28:09.206Z,17.60
2019-05-19T06:30:36.699Z,17.90
2019-05-19T06:33:04.583Z,18.10
2019-05-19T06:35:32.188Z,18.40
2019-05-19T06:37:59.793Z,18.70
2019-05-19T06:40:27.203Z,18.90
2019-05-19T06:42:54.826Z,19.10
2019-05-19T06:45:22.538Z,19.30
2019-05-19T06:47:50.006Z,19.40
2019-05-19T06:50:17.448Z,19.60
2019-05-19T06:52:44.969Z,19.80
2019-05-19T06:55:12.638Z,19.80
2019-05-19T06:57:40.264Z,19.80
2019-05-19T07:00:08.446Z,19.70
2019-05-19T07:02:36.184Z,19.60
2019-05-19T07:05:04.148Z,19.40
2019-05-19T07:07:31.991Z,19.30
2019-05-19T07:09:59.607Z,19.20
2019-05-19T07:12:27.194Z,19.20
2019-05-19T07:14:54.676Z,19.10
2019-05-19T07:17:23.168Z,19.20
2019-05-19T07:19:51.746Z,19.20
2019-05-19T07:22:19.217Z,19.30
2019-05-19T07:24:46.767Z,19.40
2019-05-19T07:27:14.327Z,19.50
2019-05-19T07:29:41.882Z,19.70
2019-05-19T07:32:10.415Z,19.90
2019-05-19T07:34:38.027Z,20.00
2019-05-19T07:37:06.174Z,20.10
2019-05-19T07:39:33.988Z,20.30
2019-05-19T07:42:01.438Z,20.40
2019-05-19T07:44:29.467Z,20.40
2019-05-19T07:46:57.053Z,20.40
2019-05-19T07:49:24.620Z,20.40
2019-05-19T07:51:52.154Z,20.50
2019-05-19T07:54:20.032Z,20.70
2019-05-19T07:56:47.968Z,20.90
2019-05-19T07:59:15.459Z,21.00
2019-05-19T08:01:42.971Z,21.10
2019-05-19T08:04:10.486Z,21.20
2019-05-19T08:06:38.983Z,21.30
2019-05-19T08:09:06.462Z,21.40
2019-05-19T08:11:33.915Z,21.50
2019-05-19T08:14:01.698Z,21.60
2019-05-19T08:16:29.283Z,21.70
2019-05-19T08:18:56.889Z,21.80
2019-05-19T08:21:25.166Z,21.90
2019-05-19T08:24:09.372Z,22.00
2019-05-19T08:26:37.997Z,22.10
2019-05-19T08:29:05.489Z,22.20
2019-05-19T08:31:32.876Z,22.30
2019-05-19T08:34:00.386Z,22.30
2019-05-19T08:36:27.938Z,22.30
2019-05-19T08:38:55.597Z,22.40
2019-05-19T08:41:24.220Z,22.50
2019-05-19T08:43:53.383Z,22.50
2019-05-19T08:46:21.601Z,22.50
2019-05-19T08:48:49.003Z,22.40
2019-05-19T08:51:16.583Z,22.30
2019-05-19T08:53:43.982Z,22.20
2019-05-19T08:56:11.388Z,22.20
2019-05-19T08:58:38.839Z,22.10
2019-05-19T09:01:06.270Z,22.10
2019-05-19T09:03:33.906Z,22.20
2019-05-19T09:06:01.336Z,22.30
2019-05-19T09:08:28.702Z,22.60
2019-05-19T09:10:57.330Z,22.80
2019-05-19T09:13:24.895Z,23.10
2019-05-19T09:15:52.447Z,23.30
2019-05-19T09:18:20.145Z,23.50
2019-05-19T09:20:49.779Z,23.60
2019-05-19T09:23:17.110Z,23.70
2019-05-19T09:25:44.513Z,23.70
2019-05-19T09:28:11.766Z,23.80
2019-05-19T09:30:39.053Z,23.90
2019-05-19T09:33:06.502Z,23.90
2019-05-19T09:35:34.095Z,24.00
2019-05-19T09:38:01.411Z,24.00
2019-05-19T09:40:28.846Z,24.00
2019-05-19T09:42:56.321Z,24.10
2019-05-19T09:45:23.775Z,24.10
2019-05-19T09:47:51.331Z,24.20
2019-05-19T09:50:18.873Z,24.30
2019-05-19T09:52:46.366Z,24.30
2019-05-19T09:55:13.918Z,24.40
2019-05-19T09:57:41.204Z,24.50
2019-05-19T10:00:08.794Z,24.60
2019-05-19T10:02:36.379Z,24.60
2019-05-19T10:05:05.577Z,24.70
2019-05-19T10:07:33.274Z,24.70
2019-05-19T10:10:05.243Z,24.80
2019-05-19T10:12:32.684Z,24.90
2019-05-19T10:15:00.330Z,24.90
2019-05-19T10:17:28.253Z,25.00
2019-05-19T10:19:55.869Z,25.10
2019-05-19T10:22:23.445Z,25.20
2019-05-19T10:25:10.536Z,25.30
2019-05-19T10:27:23.530Z,25.30
2019-05-19T10:29:51.107Z,25.40
2019-05-19T10:32:18.699Z,25.50
2019-05-19T10:34:47.211Z,25.60
2019-05-19T10:37:14.709Z,25.70
2019-05-19T10:39:42.268Z,25.70
2019-05-19T10:42:09.757Z,25.70
2019-05-19T10:44:37.329Z,25.70
2019-05-19T10:47:04.999Z,25.80
2019-05-19T10:49:32.549Z,25.90
2019-05-19T10:52:00.048Z,26.00
2019-05-19T10:54:27.495Z,26.10
2019-05-19T10:56:54.899Z,26.10
2019-05-19T10:59:22.649Z,26.20
2019-05-19T11:01:50.139Z,26.20
2019-05-19T11:04:17.702Z,26.30
2019-05-19T11:06:45.134Z,26.20
2019-05-19T11:09:12.667Z,26.30
2019-05-19T11:11:40.362Z,26.30
2019-05-19T11:14:07.922Z,26.30
2019-05-19T11:16:35.434Z,26.20
2019-05-19T11:19:02.846Z,26.00
2019-05-19T11:21:30.392Z,25.90
2019-05-19T11:23:57.793Z,25.80
2019-05-19T11:26:25.221Z,25.90
2019-05-19T11:28:52.532Z,26.00
2019-05-19T11:31:19.963Z,26.10
2019-05-19T11:33:48.791Z,26.10
2019-05-19T11:36:16.326Z,26.10
2019-05-19T11:38:44.901Z,26.10
2019-05-19T11:41:12.350Z,26.00
2019-05-19T11:43:39.895Z,25.90
2019-05-19T11:46:07.629Z,25.70
2019-05-19T11:48:35.075Z,25.70
2019-05-19T11:51:02.478Z,25.70
2019-05-19T11:53:29.922Z,25.70
2019-05-19T11:56:06.308Z,25.70
2019-05-19T11:58:26.662Z,25.70
2019-05-19T12:00:54.350Z,25.70
2019-05-19T12:03:24.218Z,25.60
2019-05-19T12:05:52.791Z,25.50
2019-05-19T12:08:21.812Z,25.50
2019-05-19T12:10:49.290Z,25.40
2019-05-19T12:13:16.747Z,25.30
2019-05-19T12:15:44.228Z,25.20
2019-05-19T12:18:11.638Z,25.20
2019-05-19T12:20:38.942Z,25.10
2019-05-19T12:23:07.573Z,25.10
2019-05-19T12:25:35.189Z,25.10
2019-05-19T12:28:02.661Z,25.20
2019-05-19T12:30:30.352Z,25.40
2019-05-19T12:32:59.386Z,25.50
2019-05-19T12:35:27.066Z,25.70
2019-05-19T12:37:54.832Z,25.80
2019-05-19T12:40:22.910Z,25.90
2019-05-19T12:42:50.366Z,25.90
2019-05-19T12:45:19.842Z,26.10
2019-05-19T12:47:47.167Z,26.30
2019-05-19T12:50:15.014Z,26.30
2019-05-19T12:52:43.346Z,26.30
2019-05-19T12:55:11.037Z,26.20
2019-05-19T12:57:38.629Z,25.90
2019-05-19T13:00:06.647Z,25.50
2019-05-19T13:02:38.114Z,25.00
2019-05-19T13:05:08.080Z,24.50
2019-05-19T13:07:35.731Z,24.00
2019-05-19T13:10:05.480Z,23.60
2019-05-19T13:12:33.541Z,23.40
2019-05-19T13:15:01.303Z,23.50
2019-05-19T13:17:29.015Z,23.50
2019-05-19T13:19:56.562Z,23.50
2019-05-19T13:22:24.250Z,23.60
2019-05-19T13:24:51.581Z,23.50
2019-05-19T13:27:19.264Z,23.40
2019-05-19T13:29:46.931Z,23.20
2019-05-19T13:32:14.560Z,23.00
2019-05-19T13:34:42.095Z,22.70
2019-05-19T13:37:11.684Z,22.60
2019-05-19T13:39:39.049Z,22.50
2019-05-19T13:42:06.574Z,22.40
2019-05-19T13:44:35.159Z,22.30
2019-05-19T13:47:02.696Z,22.30
2019-05-19T13:49:30.172Z,22.30
2019-05-19T13:51:57.781Z,22.20
2019-05-19T13:54:25.490Z,22.20
2019-05-19T13:56:52.866Z,22.10
2019-05-19T13:59:22.434Z,22.10
2019-05-19T14:01:49.920Z,22.10
2019-05-19T14:04:17.492Z,22.10
2019-05-19T14:06:45.619Z,22.10
2019-05-19T14:09:15.196Z,22.10
2019-05-19T14:11:42.288Z,22.00
2019-05-19T14:14:09.880Z,22.00
2019-05-19T14:16:37.298Z,22.00
2019-05-19T14:19:04.742Z,22.00
2019-05-19T14:21:32.463Z,22.00
2019-05-19T14:24:00.022Z,22.00
2019-05-19T14:26:27.684Z,22.10
2019-05-19T14:28:56.431Z,22.10
2019-05-19T14:31:23.965Z,22.10
2019-05-19T14:33:51.570Z,22.10
2019-05-19T14:39:23.143Z,22.00
2019-05-19T14:41:54.802Z,21.80
2019-05-19T14:44:22.242Z,21.70
2019-05-19T14:46:49.802Z,21.70
2019-05-19T14:49:17.290Z,21.70
2019-05-19T14:51:44.781Z,21.80
2019-05-19T14:54:12.348Z,22.00
2019-05-19T14:56:39.839Z,22.10
2019-05-19T14:59:07.332Z,22.30
2019-05-19T15:01:34.864Z,22.50
2019-05-19T15:04:02.417Z,22.50
2019-05-19T15:06:30.097Z,22.60
2019-05-19T15:08:57.707Z,22.50
2019-05-19T15:11:25.204Z,22.40
2019-05-19T15:13:52.879Z,22.30
2019-05-19T15:16:20.675Z,22.10
2019-05-19T15:18:48.098Z,22.00
2019-05-19T15:21:15.576Z,21.90
2019-05-19T15:23:43.079Z,21.80
2019-05-19T15:26:10.588Z,21.70
2019-05-19T15:28:38.134Z,21.70
2019-05-19T15:31:05.459Z,21.70
2019-05-19T15:33:38.037Z,21.90
2019-05-19T15:36:02.538Z,22.00
2019-05-19T15:38:30.120Z,22.10
2019-05-19T15:40:57.612Z,22.20
2019-05-19T15:43:25.302Z,22.30
2019-05-19T15:45:52.962Z,22.30
2019-05-19T15:48:20.928Z,22.30
2019-05-19T15:50:48.619Z,22.30
2019-05-19T15:53:16.741Z,22.30
2019-05-19T15:55:45.801Z,22.20
2019-05-19T15:58:16.563Z,22.20
2019-05-19T16:00:43.077Z,22.10
2019-05-19T16:03:11.639Z,22.10
2019-05-19T16:05:39.298Z,21.90
2019-05-19T16:08:06.839Z,21.80
2019-05-19T16:10:34.424Z,21.60
2019-05-19T16:13:01.942Z,21.50
2019-05-19T16:15:30.152Z,21.30
2019-05-19T16:17:57.753Z,21.20
2019-05-19T16:20:25.326Z,21.00
2019-05-19T16:22:53.028Z,20.90
2019-05-19T16:25:20.987Z,20.70
2019-05-19T16:27:48.762Z,20.60
2019-05-19T16:30:16.911Z,20.40
2019-05-19T16:32:46.925Z,20.20
2019-05-19T16:35:14.484Z,20.10
2019-05-19T16:37:42.182Z,19.90
2019-05-19T16:40:10.266Z,19.80
2019-05-19T16:42:37.894Z,19.70
2019-05-19T16:45:07.483Z,19.60
2019-05-19T16:47:35.146Z,19.50
2019-05-19T16:50:02.978Z,19.40
2019-05-19T16:52:31.662Z,19.40
2019-05-19T16:55:17.637Z,19.30
2019-05-19T16:57:45.387Z,19.30
2019-05-19T17:00:13.448Z,19.20
2019-05-19T17:02:41.086Z,19.20
2019-05-19T17:05:09.347Z,19.20
2019-05-19T17:07:37.312Z,19.10
2019-05-19T17:10:05.654Z,19.10
2019-05-19T17:12:33.415Z,19.10
2019-05-19T17:15:01.061Z,19.00
2019-05-19T17:17:28.723Z,19.00
2019-05-19T17:20:31.002Z,19.00
2019-05-19T17:23:27.667Z,18.90
2019-05-19T17:26:45.466Z,18.90
2019-05-19T17:32:34.052Z,18.70
2019-05-19T17:35:01.610Z,18.60
2019-05-19T17:37:29.231Z,18.50
2019-05-19T17:39:56.878Z,18.40
2019-05-19T17:42:24.582Z,18.40
2019-05-19T17:44:52.221Z,18.30
2019-05-19T17:47:20.128Z,18.30
2019-05-19T17:49:47.705Z,18.20
2019-05-19T17:52:15.268Z,18.20
2019-05-19T17:54:43.577Z,18.10
2019-05-19T17:57:11.235Z,18.10
2019-05-19T17:59:42.507Z,18.10
2019-05-19T18:02:10.053Z,18.00
2019-05-19T18:04:37.704Z,18.00
2019-05-19T18:07:05.382Z,17.90
2019-05-19T18:09:32.992Z,17.90
2019-05-19T18:12:00.602Z,17.80
2019-05-19T18:14:28.327Z,17.80
2019-05-19T18:16:56.366Z,17.70
2019-05-19T18:19:23.995Z,17.70
2019-05-19T18:21:51.776Z,17.70
2019-05-19T18:24:19.233Z,17.60
2019-05-19T18:26:47.231Z,17.50
2019-05-19T18:29:15.265Z,17.50
2019-05-19T18:31:42.834Z,17.50
2019-05-19T18:34:10.306Z,17.50
2019-05-19T18:36:37.752Z,17.40
2019-05-19T18:39:05.510Z,17.40
2019-05-19T18:41:33.134Z,17.40
2019-05-19T18:44:00.690Z,17.30
2019-05-19T18:46:28.270Z,17.30
2019-05-19T18:48:55.790Z,17.20
2019-05-19T18:51:25.254Z,17.20
2019-05-19T18:53:53.012Z,17.20
2019-05-19T18:56:21.110Z,17.10
2019-05-19T18:58:49.829Z,17.10
2019-05-19T19:01:18.631Z,17.00
2019-05-19T19:03:46.383Z,17.00
2019-05-19T19:06:13.903Z,16.90
2019-05-19T19:08:41.585Z,16.90
2019-05-19T19:11:10.717Z,16.90
2019-05-19T19:13:38.331Z,16.80
2019-05-19T19:16:05.918Z,16.80
2019-05-19T19:18:33.442Z,16.70
2019-05-19T19:21:01.029Z,16.70
2019-05-19T19:23:28.612Z,16.60
2019-05-19T19:25:56.170Z,16.60
2019-05-19T19:28:23.993Z,16.50
2019-05-19T19:30:52.301Z,16.50
2019-05-19T19:33:20.138Z,16.40
2019-05-19T19:35:47.590Z,16.40
2019-05-19T19:38:15.295Z,16.40
2019-05-19T19:40:43.139Z,16.30
2019-05-19T19:43:10.698Z,16.30
2019-05-19T19:45:38.135Z,16.30
2019-05-19T19:48:05.774Z,16.20
2019-05-19T19:50:34.000Z,16.20
2019-05-19T19:53:01.814Z,16.20
2019-05-19T19:55:29.335Z,16.20
2019-05-19T19:57:56.989Z,16.20
2019-05-19T20:00:44.265Z,16.20
2019-05-19T20:03:12.234Z,16.20
2019-05-19T20:05:40.681Z,16.10
2019-05-19T20:08:08.539Z,16.10
2019-05-19T20:10:36.532Z,16.10
2019-05-19T20:13:04.135Z,16.10
2019-05-19T20:15:31.852Z,16.10
2019-05-19T20:17:59.568Z,16.10
2019-05-19T20:20:27.198Z,16.00
2019-05-19T20:22:57.423Z,16.00
2019-05-19T20:25:27.738Z,16.00
2019-05-19T20:28:03.651Z,15.90
2019-05-19T20:30:38.888Z,15.90
2019-05-19T20:33:08.141Z,15.90
2019-05-19T20:35:40.541Z,15.90
2019-05-19T20:38:39.354Z,15.80
2019-05-19T20:41:07.934Z,15.80
2019-05-19T20:44:01.957Z,15.80
2019-05-19T20:46:47.293Z,15.80
2019-05-19T20:49:22.474Z,15.80
2019-05-19T20:51:55.263Z,15.70
2019-05-19T20:54:29.391Z,15.70
2019-05-19T20:57:07.426Z,15.70
2019-05-19T20:59:40.931Z,15.70
2019-05-19T21:02:28.978Z,15.70
2019-05-19T21:05:00.472Z,15.70
2019-05-19T21:07:29.187Z,15.70
2019-05-19T21:10:20.320Z,15.60
2019-05-19T21:12:49.359Z,15.60
2019-05-19T21:15:23.776Z,15.60
2019-05-19T21:17:58.298Z,15.60
2019-05-19T21:20:30.013Z,15.60
2019-05-19T21:23:06.282Z,15.50
2019-05-19T21:25:32.457Z,15.50
2019-05-19T21:31:05.671Z,15.50
2019-05-19T21:36:28.718Z,15.40
2019-05-19T21:39:01.301Z,15.40
2019-05-19T21:41:32.415Z,15.40
2019-05-19T21:44:23.582Z,15.40
2019-05-19T21:46:51.696Z,15.30
2019-05-19T21:49:21.477Z,15.30
2019-05-19T21:51:52.513Z,15.30
2019-05-19T21:54:23.688Z,15.30
2019-05-19T21:57:12.609Z,15.30
2019-05-19T22:00:01.586Z,15.30
2019-05-19T22:02:33.625Z,15.20
2019-05-19T22:05:02.077Z,15.20
2019-05-19T22:07:43.814Z,15.20
2019-05-19T22:10:12.137Z,15.20
2019-05-19T22:12:43.247Z,15.20
2019-05-19T22:15:12.368Z,15.10
2019-05-19T22:17:43.215Z,15.10
2019-05-19T22:20:14.406Z,15.10
2019-05-19T22:23:02.678Z,15.10
2019-05-19T22:25:33.688Z,15.10
2019-05-19T22:28:31.501Z,15.10
2019-05-19T22:31:02.993Z,15.10
2019-05-19T22:33:56.009Z,15.00
2019-05-19T22:39:39.182Z,15.00
2019-05-19T22:45:18.255Z,14.90
2019-05-19T22:47:54.874Z,14.90
2019-05-19T22:53:15.347Z,14.90
2019-05-19T22:55:46.585Z,14.90
2019-05-19T22:58:15.421Z,14.90
2019-05-19T23:01:07.933Z,14.90
2019-05-19T23:03:37.743Z,14.80
2019-05-19T23:06:06.013Z,14.80
2019-05-19T23:08:36.366Z,14.80
2019-05-19T23:11:27.168Z,14.80
2019-05-19T23:14:01.050Z,14.70
2019-05-19T23:16:50.459Z,14.70
2019-05-19T23:19:46.036Z,14.70
2019-05-19T23:22:16.209Z,14.70
2019-05-19T23:24:48.566Z,14.70
2019-05-19T23:27:18.448Z,14.60
2019-05-19T23:29:46.756Z,14.60
2019-05-19T23:32:15.167Z,14.60
2019-05-19T23:34:43.212Z,14.60
2019-05-19T23:37:11.487Z,14.60
2019-05-19T23:39:54.059Z,14.50
2019-05-19T23:42:21.470Z,14.50
2019-05-19T23:45:09.194Z,14.50
2019-05-19T23:47:37.476Z,14.50
2019-05-19T23:50:06.368Z,14.50
2019-05-19T23:52:34.533Z,14.40
2019-05-19T23:55:02.872Z,14.40
2019-05-19T23:57:31.044Z,14.40
2019-05-19T23:59:59.477Z,14.40
